This is the latest recevied weather packets stored in our database for station/object WP4PW. If no packets are shown the sender has not sent any weather packets the latest 10 day(s).
| Time | Temp. | Humidity | Pressure | Rain* | Wind** | Luminosity | Snow |
|---|---|---|---|---|---|---|---|
| 1778096670 | 30° C | 79% | 1020.3 hPa | 0 mm | - | 474 W/m² | - |
| 1778096367 | 31.11° C | 77% | 1020.3 hPa | 0 mm | - | 488 W/m² | - |
| 1778096064 | 30.56° C | 80% | 1020.3 hPa | 0 mm | - | 505 W/m² | - |
| 1778095760 | 29.44° C | 80% | 1020.5 hPa | 0 mm | - | 523 W/m² | - |
| 1778095457 | 29.44° C | 79% | 1020.6 hPa | 0 mm | - | 530 W/m² | - |
| 1778095154 | 30° C | 78% | 1020.5 hPa | 0 mm | - | 552 W/m² | - |
| 1778094851 | 30.56° C | 79% | 1020.8 hPa | 0 mm | - | 563 W/m² | - |
| 1778094548 | 30° C | 79% | 1020.7 hPa | 0 mm | - | 585 W/m² | - |
| 1778094244 | 30° C | 80% | 1020.6 hPa | 0 mm | - | 598 W/m² | - |
| 1778093941 | 30° C | 79% | 1020.8 hPa | 0 mm | - | 612 W/m² | - |
| 1778093638 | 30° C | 79% | 1020.8 hPa | 0 mm | - | 619 W/m² | - |
| 1778093335 | 30° C | 79% | 1020.9 hPa | 0 mm | - | 631 W/m² | - |
| 1778093032 | 30.56° C | 78% | 1020.8 hPa | 0 mm | - | 644 W/m² | - |
| 1778092730 | 30° C | 80% | 1020.6 hPa | 0 mm | - | 658 W/m² | - |
| 1778092424 | 30.56° C | 77% | 1020.9 hPa | 0 mm | - | 667 W/m² | - |
| 1778092122 | 30.56° C | 76% | 1020.8 hPa | 0 mm | - | 680 W/m² | - |
| 1778091819 | 31.11° C | 75% | 1020.7 hPa | 0 mm | - | 688 W/m² | - |
| 1778091517 | 30.56° C | 77% | 1021 hPa | 0 mm | - | 700 W/m² | - |
| 1778091215 | 30° C | 79% | 1021 hPa | 0 mm | - | 710 W/m² | - |
| 1778090911 | 30° C | 79% | 1021.2 hPa | 0 mm | - | 719 W/m² | - |
| 1778090607 | 30° C | 80% | 1021.3 hPa | 0 mm | - | 731 W/m² | - |
| 1778090304 | 30° C | 80% | 1021.4 hPa | 0 mm | - | 740 W/m² | - |
| 1778090001 | 30° C | 80% | 1021.5 hPa | 0 mm | - | 746 W/m² | - |
| 1778089698 | 30° C | 78% | 1021.6 hPa | 0 mm | - | 756 W/m² | - |
| 1778089395 | 30° C | 77% | 1021.8 hPa | 0 mm | - | 762 W/m² | - |
* Rain latest hour (hover to see other rain measurements)
** Current wind speed in m/s (hover to see current wind gust speed)